UKV6641 NFFN-NFTF
Flight info
| Callsign | UKV6641 |
|---|---|
| Flight time | 1h 13m |
| Altitude | 37000 |
| Route | ECHO NA B598 HOBAT HOBAT1A |
| Aircraft | A319/M-SDE3FGHIRWY/LB1 |
Departure
| Time | 2026-04-24 13:52 |
|---|---|
| Airport | Nadi International Airport (NFFN) |
Arrival
| Time | 2026-04-24 15:06 |
|---|---|
| Airport | Fua'amotu International Airport (NFTF) |
| Time | Latitude | Longitude | Altitude | Speed | Heading |
|---|---|---|---|---|---|
| 2026-04-24 13:35 | -17.75342 | 177.44982 | 51 ft | 0 kts | 103° |
| 2026-04-24 13:45 | -17.75342 | 177.44980 | 53 ft | 2 kts | 103° |
| 2026-04-24 13:45 | -17.75336 | 177.44954 | 53 ft | 4 kts | 104° |
| 2026-04-24 13:45 | -17.75329 | 177.44927 | 48 ft | 4 kts | 109° |
| 2026-04-24 13:45 | -17.75321 | 177.44905 | 52 ft | 1 kts | 112° |
| 2026-04-24 13:46 | -17.75319 | 177.44902 | 50 ft | 0 kts | 112° |
| 2026-04-24 13:47 | -17.75318 | 177.44910 | 52 ft | 5 kts | 80° |
| 2026-04-24 13:47 | -17.75271 | 177.44925 | 53 ft | 11 kts | 3° |
| 2026-04-24 13:48 | -17.75188 | 177.44926 | 54 ft | 13 kts | 339° |
| 2026-04-24 13:48 | -17.75146 | 177.44842 | 54 ft | 14 kts | 283° |
| 2026-04-24 13:48 | -17.75122 | 177.44732 | 54 ft | 17 kts | 283° |
| 2026-04-24 13:48 | -17.75158 | 177.44615 | 51 ft | 20 kts | 220° |
| 2026-04-24 13:49 | -17.75279 | 177.44517 | 50 ft | 27 kts | 218° |
| 2026-04-24 13:49 | -17.75436 | 177.44389 | 49 ft | 30 kts | 218° |
| 2026-04-24 13:49 | -17.75607 | 177.44251 | 51 ft | 32 kts | 218° |
| 2026-04-24 13:49 | -17.75791 | 177.44110 | 51 ft | 34 kts | 216° |
| 2026-04-24 13:50 | -17.75984 | 177.43953 | 49 ft | 37 kts | 219° |
| 2026-04-24 13:50 | -17.76191 | 177.43782 | 46 ft | 40 kts | 218° |
| 2026-04-24 13:50 | -17.76417 | 177.43597 | 47 ft | 43 kts | 218° |
| 2026-04-24 13:50 | -17.76660 | 177.43401 | 47 ft | 45 kts | 217° |
| 2026-04-24 13:51 | -17.76911 | 177.43191 | 44 ft | 35 kts | 225° |
| 2026-04-24 13:51 | -17.76966 | 177.43166 | 44 ft | 10 kts | 36° |
| 2026-04-24 13:51 | -17.76875 | 177.43233 | 42 ft | 35 kts | 38° |
| 2026-04-24 13:51 | -17.76521 | 177.43518 | 46 ft | 92 kts | 37° |
| 2026-04-24 13:52 | -17.75871 | 177.44044 | 51 ft | 143 kts | 38° |
| 2026-04-24 13:52 | -17.74991 | 177.44762 | 329 ft | 162 kts | 39° |
| 2026-04-24 13:52 | -17.73980 | 177.45261 | 914 ft | 167 kts | 4° |
| 2026-04-24 13:52 | -17.72926 | 177.44782 | 1425 ft | 175 kts | 309° |
| 2026-04-24 13:53 | -17.72562 | 177.43557 | 2005 ft | 186 kts | 268° |
| 2026-04-24 13:53 | -17.73041 | 177.42242 | 2355 ft | 207 kts | 223° |
| 2026-04-24 13:53 | -17.74282 | 177.41346 | 2795 ft | 229 kts | 206° |
| 2026-04-24 13:53 | -17.75764 | 177.40510 | 3303 ft | 253 kts | 204° |
| 2026-04-24 13:54 | -17.77373 | 177.39636 | 3874 ft | 272 kts | 205° |
| 2026-04-24 13:54 | -17.79095 | 177.38695 | 4730 ft | 278 kts | 206° |
| 2026-04-24 13:54 | -17.80811 | 177.37744 | 5596 ft | 281 kts | 206° |
| 2026-04-24 13:54 | -17.82527 | 177.36781 | 6468 ft | 285 kts | 207° |
| 2026-04-24 13:55 | -17.84281 | 177.35791 | 7274 ft | 288 kts | 207° |
| 2026-04-24 13:55 | -17.86064 | 177.34782 | 8077 ft | 292 kts | 207° |
| 2026-04-24 13:55 | -17.87990 | 177.34102 | 8832 ft | 295 kts | 185° |
| 2026-04-24 13:55 | -17.90006 | 177.34426 | 9556 ft | 297 kts | 153° |
| 2026-04-24 13:56 | -17.91569 | 177.35810 | 10226 ft | 300 kts | 123° |
| 2026-04-24 13:56 | -17.92364 | 177.37891 | 10433 ft | 320 kts | 99° |
| 2026-04-24 13:56 | -17.92558 | 177.40260 | 10838 ft | 331 kts | 89° |
| 2026-04-24 13:56 | -17.92535 | 177.42697 | 11446 ft | 336 kts | 87° |
| 2026-04-24 13:57 | -17.92511 | 177.45165 | 12088 ft | 340 kts | 89° |
| 2026-04-24 13:57 | -17.92572 | 177.47658 | 12734 ft | 344 kts | 91° |
| 2026-04-24 13:57 | -17.92735 | 177.50176 | 13371 ft | 348 kts | 94° |
| 2026-04-24 13:57 | -17.92976 | 177.52716 | 13977 ft | 352 kts | 95° |
| 2026-04-24 13:58 | -17.93265 | 177.55278 | 14512 ft | 355 kts | 96° |
| 2026-04-24 13:58 | -17.93575 | 177.57869 | 15043 ft | 359 kts | 96° |
| 2026-04-24 13:58 | -17.93888 | 177.60481 | 15574 ft | 362 kts | 96° |
| 2026-04-24 13:58 | -17.94198 | 177.63124 | 16096 ft | 366 kts | 95° |
| 2026-04-24 13:59 | -17.94502 | 177.65788 | 16620 ft | 369 kts | 95° |
| 2026-04-24 13:59 | -17.94803 | 177.68480 | 17166 ft | 373 kts | 95° |
| 2026-04-24 13:59 | -17.95100 | 177.71169 | 17689 ft | 377 kts | 95° |
| 2026-04-24 13:59 | -17.95398 | 177.73913 | 18212 ft | 380 kts | 95° |
| 2026-04-24 14:00 | -17.95697 | 177.76694 | 18679 ft | 384 kts | 95° |
| 2026-04-24 14:00 | -17.96000 | 177.79489 | 19118 ft | 387 kts | 95° |
| 2026-04-24 14:00 | -17.96308 | 177.82312 | 19563 ft | 391 kts | 95° |
| 2026-04-24 14:00 | -17.96618 | 177.85156 | 19996 ft | 394 kts | 95° |
| 2026-04-24 14:01 | -17.96931 | 177.88034 | 20452 ft | 398 kts | 95° |
| 2026-04-24 14:01 | -17.97244 | 177.90924 | 20897 ft | 401 kts | 95° |
| 2026-04-24 14:01 | -17.97561 | 177.93851 | 21337 ft | 405 kts | 95° |
| 2026-04-24 14:01 | -17.97882 | 177.96805 | 21747 ft | 408 kts | 95° |
| 2026-04-24 14:02 | -17.98206 | 177.99778 | 22158 ft | 412 kts | 95° |
| 2026-04-24 14:02 | -17.98532 | 178.02776 | 22565 ft | 415 kts | 95° |
| 2026-04-24 14:02 | -17.98858 | 178.05799 | 22977 ft | 418 kts | 95° |
| 2026-04-24 14:02 | -17.99186 | 178.08845 | 23389 ft | 422 kts | 95° |
| 2026-04-24 14:03 | -17.99519 | 178.11921 | 23765 ft | 425 kts | 95° |
| 2026-04-24 14:03 | -17.99852 | 178.15012 | 24092 ft | 427 kts | 95° |
| 2026-04-24 14:03 | -18.00186 | 178.18134 | 24424 ft | 430 kts | 95° |
| 2026-04-24 14:03 | -18.00519 | 178.21263 | 24764 ft | 432 kts | 95° |
| 2026-04-24 14:04 | -18.00856 | 178.24410 | 25096 ft | 435 kts | 95° |
| 2026-04-24 14:04 | -18.01196 | 178.27575 | 25418 ft | 437 kts | 95° |
| 2026-04-24 14:04 | -18.01536 | 178.30758 | 25745 ft | 440 kts | 95° |
| 2026-04-24 14:04 | -18.01876 | 178.33959 | 26079 ft | 442 kts | 95° |
| 2026-04-24 14:05 | -18.02211 | 178.37143 | 26399 ft | 445 kts | 95° |
| 2026-04-24 14:05 | -18.02556 | 178.40379 | 26715 ft | 447 kts | 95° |
| 2026-04-24 14:05 | -18.02904 | 178.43631 | 27036 ft | 449 kts | 95° |
| 2026-04-24 14:05 | -18.03254 | 178.46907 | 27351 ft | 452 kts | 95° |
| 2026-04-24 14:06 | -18.03603 | 178.50193 | 27673 ft | 454 kts | 95° |
| 2026-04-24 14:06 | -18.04002 | 178.53488 | 27981 ft | 457 kts | 99° |
| 2026-04-24 14:06 | -18.04826 | 178.56725 | 28280 ft | 460 kts | 109° |
| 2026-04-24 14:06 | -18.06148 | 178.59801 | 28594 ft | 463 kts | 118° |
| 2026-04-24 14:07 | -18.07741 | 178.62752 | 28920 ft | 466 kts | 119° |
| 2026-04-24 14:07 | -18.09336 | 178.65723 | 29234 ft | 468 kts | 119° |
| 2026-04-24 14:07 | -18.10932 | 178.68712 | 29543 ft | 470 kts | 119° |
| 2026-04-24 14:07 | -18.12531 | 178.71719 | 29849 ft | 472 kts | 119° |
| 2026-04-24 14:08 | -18.14139 | 178.74747 | 30135 ft | 475 kts | 119° |
| 2026-04-24 14:08 | -18.15753 | 178.77783 | 30383 ft | 477 kts | 119° |
| 2026-04-24 14:08 | -18.17377 | 178.80837 | 30633 ft | 479 kts | 119° |
| 2026-04-24 14:08 | -18.19006 | 178.83897 | 30883 ft | 481 kts | 119° |
| 2026-04-24 14:09 | -18.20643 | 178.86975 | 31124 ft | 482 kts | 118° |
| 2026-04-24 14:09 | -18.22282 | 178.90060 | 31369 ft | 484 kts | 118° |
| 2026-04-24 14:09 | -18.23926 | 178.93157 | 31608 ft | 486 kts | 118° |
| 2026-04-24 14:09 | -18.25577 | 178.96265 | 31925 ft | 486 kts | 118° |
| 2026-04-24 14:10 | -18.26666 | 178.98318 | 32164 ft | 485 kts | 119° |
| 2026-04-24 14:10 | -18.28863 | 179.02457 | 32620 ft | 484 kts | 119° |
| 2026-04-24 14:10 | -18.30488 | 179.05513 | 32971 ft | 484 kts | 119° |
| 2026-04-24 14:10 | -18.32127 | 179.08600 | 33331 ft | 483 kts | 119° |
| 2026-04-24 14:11 | -18.33761 | 179.11685 | 33696 ft | 482 kts | 119° |
| 2026-04-24 14:11 | -18.35391 | 179.14766 | 34069 ft | 482 kts | 119° |
| 2026-04-24 14:11 | -18.38645 | 179.20928 | 34685 ft | 481 kts | 118° |
| 2026-04-24 14:12 | -18.40266 | 179.24003 | 34983 ft | 480 kts | 118° |
| 2026-04-24 14:12 | -18.41886 | 179.27070 | 35315 ft | 479 kts | 118° |
| 2026-04-24 14:12 | -18.43506 | 179.30130 | 35620 ft | 479 kts | 118° |
| 2026-04-24 14:12 | -18.45130 | 179.33202 | 35855 ft | 480 kts | 118° |
| 2026-04-24 14:13 | -18.46746 | 179.36268 | 36106 ft | 480 kts | 118° |
| 2026-04-24 14:13 | -18.48375 | 179.39360 | 36380 ft | 480 kts | 118° |
| 2026-04-24 14:13 | -18.49995 | 179.42439 | 36656 ft | 480 kts | 118° |
| 2026-04-24 14:13 | -18.51618 | 179.45520 | 36927 ft | 480 kts | 118° |
| 2026-04-24 14:14 | -18.53238 | 179.48593 | 37041 ft | 480 kts | 118° |
| 2026-04-24 14:14 | -18.58080 | 179.57821 | 37062 ft | 479 kts | 118° |
| 2026-04-24 14:15 | -18.61306 | 179.63971 | 37062 ft | 479 kts | 118° |
| 2026-04-24 14:15 | -18.64533 | 179.70125 | 37062 ft | 479 kts | 118° |
| 2026-04-24 14:16 | -18.67738 | 179.76242 | 37063 ft | 479 kts | 118° |
| 2026-04-24 14:17 | -18.72576 | 179.85477 | 37067 ft | 479 kts | 118° |
| 2026-04-24 14:17 | -18.77393 | 179.94672 | 37067 ft | 479 kts | 118° |
| 2026-04-24 14:18 | -18.80617 | -179.99146 | 37058 ft | 480 kts | 118° |
| 2026-04-24 14:18 | -18.83816 | -179.92945 | 37049 ft | 482 kts | 118° |
| 2026-04-24 14:19 | -18.87030 | -179.86723 | 37053 ft | 482 kts | 118° |
| 2026-04-24 14:19 | -18.90245 | -179.80507 | 37053 ft | 483 kts | 118° |
| 2026-04-24 14:20 | -18.93457 | -179.74275 | 37056 ft | 483 kts | 118° |
| 2026-04-24 14:20 | -18.96674 | -179.68038 | 37061 ft | 483 kts | 118° |
| 2026-04-24 14:21 | -18.99859 | -179.61840 | 37066 ft | 483 kts | 118° |
| 2026-04-24 14:21 | -19.03062 | -179.55594 | 37069 ft | 483 kts | 118° |
| 2026-04-24 14:22 | -19.06275 | -179.49342 | 37070 ft | 483 kts | 118° |
| 2026-04-24 14:23 | -19.11094 | -179.39976 | 37073 ft | 483 kts | 118° |
| 2026-04-24 14:23 | -19.14278 | -179.33759 | 37075 ft | 484 kts | 118° |
| 2026-04-24 14:24 | -19.17486 | -179.27481 | 37070 ft | 484 kts | 118° |
| 2026-04-24 14:24 | -19.20699 | -179.21204 | 37064 ft | 485 kts | 118° |
| 2026-04-24 14:25 | -19.23364 | -179.15981 | 37065 ft | 485 kts | 118° |
| 2026-04-24 14:25 | -19.27096 | -179.08675 | 37068 ft | 485 kts | 118° |
| 2026-04-24 14:26 | -19.29775 | -179.03407 | 37070 ft | 485 kts | 118° |
| 2026-04-24 14:26 | -19.32976 | -178.97108 | 37075 ft | 486 kts | 118° |
| 2026-04-24 14:27 | -19.36163 | -178.90865 | 37078 ft | 486 kts | 118° |
| 2026-04-24 14:27 | -19.39375 | -178.84558 | 37076 ft | 486 kts | 118° |
| 2026-04-24 14:28 | -19.42575 | -178.78241 | 37084 ft | 485 kts | 118° |
| 2026-04-24 14:28 | -19.45770 | -178.71937 | 37091 ft | 485 kts | 118° |
| 2026-04-24 14:29 | -19.48961 | -178.65631 | 37078 ft | 486 kts | 118° |
| 2026-04-24 14:29 | -19.52150 | -178.59306 | 37074 ft | 486 kts | 118° |
| 2026-04-24 14:30 | -19.55331 | -178.53018 | 37081 ft | 487 kts | 118° |
| 2026-04-24 14:30 | -19.58537 | -178.46681 | 37082 ft | 487 kts | 118° |
| 2026-04-24 14:31 | -19.61738 | -178.40344 | 37086 ft | 487 kts | 118° |
| 2026-04-24 14:31 | -19.64939 | -178.34000 | 37084 ft | 487 kts | 118° |
| 2026-04-24 14:32 | -19.68114 | -178.27706 | 37089 ft | 487 kts | 118° |
| 2026-04-24 14:32 | -19.71309 | -178.21356 | 37086 ft | 487 kts | 118° |
| 2026-04-24 14:33 | -19.74503 | -178.15015 | 37090 ft | 487 kts | 118° |
| 2026-04-24 14:33 | -19.77696 | -178.08662 | 37091 ft | 487 kts | 118° |
| 2026-04-24 14:34 | -19.80875 | -178.02309 | 37097 ft | 487 kts | 118° |
| 2026-04-24 14:34 | -19.84044 | -177.95986 | 37090 ft | 488 kts | 118° |
| 2026-04-24 14:35 | -19.87235 | -177.89618 | 37088 ft | 488 kts | 118° |
| 2026-04-24 14:35 | -19.90423 | -177.83236 | 37089 ft | 488 kts | 118° |
| 2026-04-24 14:36 | -19.93608 | -177.76850 | 37090 ft | 489 kts | 118° |
| 2026-04-24 14:36 | -19.96796 | -177.70460 | 37090 ft | 489 kts | 118° |
| 2026-04-24 14:37 | -19.99957 | -177.64118 | 37094 ft | 489 kts | 118° |
| 2026-04-24 14:37 | -20.03173 | -177.57750 | 37099 ft | 488 kts | 119° |
| 2026-04-24 14:38 | -20.06427 | -177.51405 | 37100 ft | 488 kts | 119° |
| 2026-04-24 14:38 | -20.09680 | -177.45062 | 37099 ft | 488 kts | 119° |
| 2026-04-24 14:39 | -20.12917 | -177.38690 | 37104 ft | 488 kts | 119° |
| 2026-04-24 14:39 | -20.16146 | -177.32324 | 36526 ft | 493 kts | 119° |
| 2026-04-24 14:39 | -20.17789 | -177.29092 | 35441 ft | 498 kts | 118° |
| 2026-04-24 14:40 | -20.19421 | -177.25874 | 34976 ft | 486 kts | 118° |
| 2026-04-24 14:40 | -20.21012 | -177.22733 | 34464 ft | 477 kts | 118° |
| 2026-04-24 14:40 | -20.22555 | -177.19687 | 33962 ft | 468 kts | 118° |
| 2026-04-24 14:40 | -20.24084 | -177.16674 | 33368 ft | 460 kts | 118° |
| 2026-04-24 14:41 | -20.25602 | -177.13676 | 32949 ft | 455 kts | 118° |
| 2026-04-24 14:41 | -20.27098 | -177.10716 | 32466 ft | 454 kts | 118° |
| 2026-04-24 14:41 | -20.28592 | -177.07759 | 31983 ft | 452 kts | 118° |
| 2026-04-24 14:41 | -20.30081 | -177.04811 | 31511 ft | 451 kts | 118° |
| 2026-04-24 14:42 | -20.31569 | -177.01870 | 31043 ft | 449 kts | 118° |
| 2026-04-24 14:42 | -20.33049 | -176.98945 | 30589 ft | 448 kts | 117° |
| 2026-04-24 14:42 | -20.34523 | -176.96026 | 30117 ft | 446 kts | 117° |
| 2026-04-24 14:42 | -20.35994 | -176.93116 | 29636 ft | 444 kts | 118° |
| 2026-04-24 14:43 | -20.37451 | -176.90228 | 29205 ft | 440 kts | 118° |
| 2026-04-24 14:43 | -20.38893 | -176.87365 | 28783 ft | 436 kts | 118° |
| 2026-04-24 14:43 | -20.40323 | -176.84527 | 28365 ft | 433 kts | 118° |
| 2026-04-24 14:43 | -20.41741 | -176.81711 | 27945 ft | 430 kts | 118° |
| 2026-04-24 14:44 | -20.43135 | -176.78941 | 27518 ft | 427 kts | 118° |
| 2026-04-24 14:44 | -20.44537 | -176.76155 | 27117 ft | 425 kts | 118° |
| 2026-04-24 14:44 | -20.45935 | -176.73373 | 26679 ft | 424 kts | 118° |
| 2026-04-24 14:44 | -20.47325 | -176.70608 | 26250 ft | 422 kts | 118° |
| 2026-04-24 14:45 | -20.48709 | -176.67844 | 25803 ft | 422 kts | 118° |
| 2026-04-24 14:45 | -20.50087 | -176.65089 | 25355 ft | 421 kts | 118° |
| 2026-04-24 14:45 | -20.51463 | -176.62338 | 24899 ft | 420 kts | 118° |
| 2026-04-24 14:45 | -20.52837 | -176.59593 | 24434 ft | 419 kts | 118° |
| 2026-04-24 14:46 | -20.54206 | -176.56862 | 24073 ft | 415 kts | 118° |
| 2026-04-24 14:46 | -20.55575 | -176.54141 | 23655 ft | 413 kts | 119° |
| 2026-04-24 14:46 | -20.56925 | -176.51455 | 23220 ft | 409 kts | 119° |
| 2026-04-24 14:46 | -20.58261 | -176.48783 | 22740 ft | 406 kts | 118° |
| 2026-04-24 14:47 | -20.59583 | -176.46131 | 22271 ft | 403 kts | 118° |
| 2026-04-24 14:47 | -20.60898 | -176.43498 | 21808 ft | 400 kts | 118° |
| 2026-04-24 14:47 | -20.62201 | -176.40885 | 21342 ft | 397 kts | 118° |
| 2026-04-24 14:47 | -20.63478 | -176.38327 | 20887 ft | 394 kts | 118° |
| 2026-04-24 14:48 | -20.64763 | -176.35758 | 20427 ft | 391 kts | 118° |
| 2026-04-24 14:48 | -20.66039 | -176.33208 | 19977 ft | 388 kts | 118° |
| 2026-04-24 14:48 | -20.67293 | -176.30677 | 19467 ft | 383 kts | 118° |
| 2026-04-24 14:48 | -20.68506 | -176.28176 | 18979 ft | 372 kts | 117° |
| 2026-04-24 14:49 | -20.69663 | -176.25747 | 18575 ft | 361 kts | 117° |
| 2026-04-24 14:49 | -20.70776 | -176.23390 | 18161 ft | 350 kts | 117° |
| 2026-04-24 14:49 | -20.71862 | -176.21103 | 17763 ft | 339 kts | 117° |
| 2026-04-24 14:49 | -20.72907 | -176.18917 | 17395 ft | 329 kts | 117° |
| 2026-04-24 14:50 | -20.73935 | -176.16772 | 17035 ft | 320 kts | 117° |
| 2026-04-24 14:50 | -20.74944 | -176.14664 | 16684 ft | 318 kts | 117° |
| 2026-04-24 14:50 | -20.75949 | -176.12567 | 16329 ft | 316 kts | 117° |
| 2026-04-24 14:50 | -20.76948 | -176.10486 | 15985 ft | 314 kts | 117° |
| 2026-04-24 14:51 | -20.77944 | -176.08410 | 15641 ft | 315 kts | 117° |
| 2026-04-24 14:51 | -20.78943 | -176.06328 | 15291 ft | 315 kts | 117° |
| 2026-04-24 14:51 | -20.79941 | -176.04244 | 14940 ft | 314 kts | 117° |
| 2026-04-24 14:51 | -20.80936 | -176.02156 | 14585 ft | 314 kts | 117° |
| 2026-04-24 14:52 | -20.81928 | -176.00075 | 14238 ft | 314 kts | 117° |
| 2026-04-24 14:52 | -20.82920 | -175.97992 | 13878 ft | 315 kts | 117° |
| 2026-04-24 14:52 | -20.83913 | -175.95911 | 13499 ft | 314 kts | 118° |
| 2026-04-24 14:52 | -20.84892 | -175.93864 | 13150 ft | 312 kts | 118° |
| 2026-04-24 14:53 | -20.85878 | -175.91801 | 12796 ft | 311 kts | 117° |
| 2026-04-24 14:53 | -20.86860 | -175.89743 | 12428 ft | 310 kts | 117° |
| 2026-04-24 14:53 | -20.87841 | -175.87684 | 12071 ft | 309 kts | 117° |
| 2026-04-24 14:53 | -20.88815 | -175.85642 | 11715 ft | 308 kts | 117° |
| 2026-04-24 14:54 | -20.89786 | -175.83603 | 11363 ft | 307 kts | 117° |
| 2026-04-24 14:54 | -20.90750 | -175.81576 | 11014 ft | 305 kts | 117° |
| 2026-04-24 14:54 | -20.91712 | -175.79557 | 10656 ft | 304 kts | 116° |
| 2026-04-24 14:54 | -20.92672 | -175.77537 | 10306 ft | 303 kts | 116° |
| 2026-04-24 14:55 | -20.93305 | -175.76202 | 10076 ft | 303 kts | 116° |
| 2026-04-24 14:55 | -20.94565 | -175.73547 | 9582 ft | 301 kts | 116° |
| 2026-04-24 14:55 | -20.95507 | -175.71562 | 9235 ft | 298 kts | 116° |
| 2026-04-24 14:55 | -20.96445 | -175.69587 | 8886 ft | 296 kts | 116° |
| 2026-04-24 14:56 | -20.97377 | -175.67627 | 8540 ft | 294 kts | 116° |
| 2026-04-24 14:56 | -20.98301 | -175.65680 | 8197 ft | 292 kts | 116° |
| 2026-04-24 14:56 | -20.99217 | -175.63749 | 7850 ft | 290 kts | 116° |
| 2026-04-24 14:56 | -21.00127 | -175.61829 | 7500 ft | 289 kts | 116° |
| 2026-04-24 14:57 | -21.01032 | -175.59919 | 7165 ft | 287 kts | 116° |
| 2026-04-24 14:57 | -21.01932 | -175.58023 | 6866 ft | 284 kts | 116° |
| 2026-04-24 14:57 | -21.02828 | -175.56137 | 6505 ft | 283 kts | 116° |
| 2026-04-24 14:57 | -21.03716 | -175.54265 | 6189 ft | 280 kts | 116° |
| 2026-04-24 14:58 | -21.04580 | -175.52443 | 5870 ft | 278 kts | 116° |
| 2026-04-24 14:58 | -21.05446 | -175.50612 | 5597 ft | 273 kts | 116° |
| 2026-04-24 14:58 | -21.06309 | -175.48785 | 5228 ft | 273 kts | 116° |
| 2026-04-24 14:58 | -21.07165 | -175.46972 | 4853 ft | 272 kts | 116° |
| 2026-04-24 14:59 | -21.08010 | -175.45183 | 4543 ft | 269 kts | 116° |
| 2026-04-24 14:59 | -21.08841 | -175.43416 | 4312 ft | 262 kts | 116° |
| 2026-04-24 14:59 | -21.09653 | -175.41695 | 4110 ft | 256 kts | 116° |
| 2026-04-24 14:59 | -21.10445 | -175.40022 | 3977 ft | 247 kts | 116° |
| 2026-04-24 15:00 | -21.11205 | -175.38412 | 3865 ft | 237 kts | 116° |
| 2026-04-24 15:00 | -21.11935 | -175.36867 | 3764 ft | 228 kts | 116° |
| 2026-04-24 15:00 | -21.12634 | -175.35386 | 3661 ft | 218 kts | 117° |
| 2026-04-24 15:00 | -21.13306 | -175.33966 | 3564 ft | 210 kts | 116° |
| 2026-04-24 15:01 | -21.13946 | -175.32615 | 3476 ft | 197 kts | 116° |
| 2026-04-24 15:01 | -21.14543 | -175.31349 | 3428 ft | 182 kts | 117° |
| 2026-04-24 15:01 | -21.15181 | -175.30210 | 3164 ft | 178 kts | 121° |
| 2026-04-24 15:01 | -21.15813 | -175.29102 | 2928 ft | 171 kts | 121° |
| 2026-04-24 15:02 | -21.16431 | -175.28039 | 2750 ft | 164 kts | 122° |
| 2026-04-24 15:02 | -21.17032 | -175.27025 | 2542 ft | 158 kts | 121° |
| 2026-04-24 15:02 | -21.17612 | -175.26026 | 2220 ft | 159 kts | 122° |
| 2026-04-24 15:02 | -21.18194 | -175.25047 | 2029 ft | 150 kts | 122° |
| 2026-04-24 15:03 | -21.18554 | -175.24426 | 1928 ft | 145 kts | 121° |
| 2026-04-24 15:03 | -21.19231 | -175.23237 | 1726 ft | 134 kts | 120° |
| 2026-04-24 15:03 | -21.19707 | -175.22405 | 1575 ft | 128 kts | 122° |
| 2026-04-24 15:03 | -21.20176 | -175.21614 | 1425 ft | 126 kts | 122° |
| 2026-04-24 15:04 | -21.20650 | -175.20825 | 1283 ft | 127 kts | 121° |
| 2026-04-24 15:04 | -21.21126 | -175.20024 | 991 ft | 127 kts | 122° |
| 2026-04-24 15:04 | -21.21603 | -175.19245 | 871 ft | 125 kts | 123° |
| 2026-04-24 15:04 | -21.22077 | -175.18446 | 738 ft | 129 kts | 122° |
| 2026-04-24 15:05 | -21.22538 | -175.17623 | 589 ft | 126 kts | 126° |
| 2026-04-24 15:05 | -21.23000 | -175.16833 | 408 ft | 127 kts | 125° |
| 2026-04-24 15:05 | -21.23471 | -175.16026 | 179 ft | 125 kts | 125° |
| 2026-04-24 15:05 | -21.23904 | -175.15296 | 112 ft | 99 kts | 122° |
| 2026-04-24 15:06 | -21.24178 | -175.14829 | 115 ft | 49 kts | 121° |
| 2026-04-24 15:06 | -21.24338 | -175.14552 | 119 ft | 46 kts | 122° |
| 2026-04-24 15:06 | -21.24440 | -175.14318 | 118 ft | 16 kts | 51° |
| 2026-04-24 15:06 | -21.24367 | -175.14298 | 120 ft | 11 kts | 24° |
| 2026-04-24 15:07 | -21.24296 | -175.14247 | 122 ft | 13 kts | 34° |
| 2026-04-24 15:07 | -21.24228 | -175.14233 | 120 ft | 7 kts | 334° |
| 2026-04-24 15:07 | -21.24206 | -175.14202 | 120 ft | 7 kts | 92° |
| 2026-04-24 15:07 | -21.24208 | -175.14187 | 122 ft | 0 kts | 103° |